createdAt,value
2018-01-25T00:00:12.879Z,86.35
2018-01-25T00:01:12.129Z,86.87
2018-01-25T00:02:16.490Z,86.7
2018-01-25T00:03:12.463Z,86.4
2018-01-25T00:04:13.494Z,86.5
2018-01-25T00:05:14.896Z,86.66
2018-01-25T00:06:12.806Z,86.54
2018-01-25T00:07:12.005Z,86.77
2018-01-25T00:08:13.827Z,86.78
2018-01-25T00:09:13.882Z,86.66
2018-01-25T00:10:13.354Z,86.55
2018-01-25T00:11:14.548Z,87.05
2018-01-25T00:12:11.928Z,87.22
2018-01-25T00:13:13.179Z,86.78
2018-01-25T00:14:12.416Z,87.05
2018-01-25T00:15:12.571Z,86.69
2018-01-25T00:16:14.825Z,87.05
2018-01-25T00:17:15.440Z,87.06
2018-01-25T00:18:11.489Z,86.93
2018-01-25T00:19:15.403Z,86.85
2018-01-25T00:20:13.880Z,86.82
2018-01-25T00:21:12.332Z,86.9
2018-01-25T00:22:15.183Z,86.86
2018-01-25T00:23:13.247Z,86.97
2018-01-25T00:24:14.962Z,86.87
2018-01-25T00:25:13.824Z,86.81
2018-01-25T00:26:13.148Z,87.26
2018-01-25T00:27:12.606Z,86.88
2018-01-25T00:28:13.064Z,86.63
2018-01-25T00:29:14.075Z,87.35
2018-01-25T00:30:11.739Z,87.63
2018-01-25T00:31:13.865Z,87.79
2018-01-25T00:32:11.717Z,87.73
2018-01-25T00:33:12.120Z,87.91
2018-01-25T00:34:13.405Z,87.69
2018-01-25T00:35:13.995Z,87.58
2018-01-25T00:36:13.405Z,87.42
2018-01-25T00:37:13.300Z,87.5
2018-01-25T00:38:13.698Z,87.27
2018-01-25T00:39:11.635Z,87.76
2018-01-25T00:40:13.903Z,87.76
2018-01-25T00:41:15.039Z,88.08
2018-01-25T00:42:11.648Z,87.64
2018-01-25T00:43:12.329Z,87.66
2018-01-25T00:44:14.482Z,87.74
2018-01-25T00:45:12.099Z,87.95
2018-01-25T00:46:13.029Z,88.05
2018-01-25T00:47:11.843Z,87.65
2018-01-25T00:48:12.798Z,87.99
2018-01-25T00:49:13.210Z,87.89
2018-01-25T00:52:13.333Z,87.45
2018-01-25T00:53:13.061Z,87.3
2018-01-25T00:54:12.679Z,86.9
2018-01-25T00:55:12.105Z,86.88
2018-01-25T00:58:29.254Z,86.3
2018-01-25T00:59:13.102Z,85.98
2018-01-25T01:00:13.132Z,86.06
2018-01-25T01:01:12.483Z,85.96
2018-01-25T01:02:13.824Z,85.76
2018-01-25T01:03:12.092Z,85.48
2018-01-25T01:04:14.196Z,85.35
2018-01-25T01:05:15.843Z,85.21
2018-01-25T01:06:11.635Z,84.21
2018-01-25T01:07:13.899Z,84.03
2018-01-25T01:08:13.279Z,84.22
2018-01-25T01:09:13.943Z,84.01
2018-01-25T01:10:12.801Z,83.93
2018-01-25T01:11:11.806Z,83.78
2018-01-25T01:12:12.898Z,83.78
2018-01-25T01:13:12.537Z,83.72
2018-01-25T01:14:12.894Z,83.64
2018-01-25T01:15:11.479Z,83.39
2018-01-25T01:16:11.817Z,83.04
2018-01-25T01:17:11.491Z,83.07
2018-01-25T01:18:11.509Z,82.36
2018-01-25T01:19:11.631Z,82.52
2018-01-25T01:20:11.687Z,82.3
2018-01-25T01:21:11.521Z,82.15
2018-01-25T01:22:11.704Z,81.42
2018-01-25T01:23:11.711Z,80.31
2018-01-25T01:24:11.695Z,80.09
2018-01-25T01:25:11.616Z,79.82
2018-01-25T01:26:11.939Z,79.09
2018-01-25T01:27:11.970Z,79.33
2018-01-25T01:28:11.540Z,79.3
2018-01-25T01:29:11.755Z,78.77
2018-01-25T01:30:11.655Z,78.16
2018-01-25T01:31:11.599Z,77.68
2018-01-25T01:32:11.569Z,77.58
2018-01-25T01:33:11.761Z,78.02
2018-01-25T01:34:11.734Z,77.87
2018-01-25T01:35:11.801Z,77.31
2018-01-25T01:36:11.699Z,77.28
2018-01-25T01:37:11.698Z,77.24
2018-01-25T01:38:11.665Z,76.9
2018-01-25T01:39:11.702Z,76.52
2018-01-25T01:40:11.603Z,76.36
2018-01-25T01:41:12.162Z,76.36
2018-01-25T01:42:11.841Z,76.37
2018-01-25T01:43:11.530Z,76.56
2018-01-25T01:44:11.737Z,75.91
2018-01-25T01:45:11.664Z,76
2018-01-25T01:46:11.569Z,75.09
2018-01-25T01:47:11.761Z,75.59
2018-01-25T01:48:11.667Z,75.65
2018-01-25T01:49:11.681Z,75.46
2018-01-25T01:50:11.690Z,75.73
2018-01-25T01:51:11.528Z,75.48
2018-01-25T01:52:11.769Z,74.2
2018-01-25T01:53:11.536Z,74.43
2018-01-25T01:54:11.566Z,74.43
2018-01-25T01:55:11.724Z,74.03
2018-01-25T01:56:11.632Z,73.71
2018-01-25T01:57:11.735Z,73.9
2018-01-25T01:58:11.569Z,73.63
2018-01-25T01:59:11.577Z,73.78
2018-01-25T02:00:11.273Z,73.52
2018-01-25T02:01:10.948Z,73.92
2018-01-25T02:02:10.827Z,74.06
2018-01-25T02:03:10.679Z,74.08
2018-01-25T02:04:10.824Z,74.37
2018-01-25T02:05:10.742Z,74.39
2018-01-25T02:06:10.694Z,74.38
2018-01-25T02:07:10.631Z,74.04
2018-01-25T02:08:10.608Z,74.5
2018-01-25T02:09:10.795Z,73.76
2018-01-25T02:10:10.679Z,73.34
2018-01-25T02:11:10.618Z,73.75
2018-01-25T02:12:10.592Z,73.95
2018-01-25T02:13:10.682Z,74.09
2018-01-25T02:14:10.615Z,74.31
2018-01-25T02:15:10.609Z,74.12
2018-01-25T02:16:10.743Z,73.84
2018-01-25T02:17:10.777Z,73.5
2018-01-25T02:18:10.685Z,73.73
2018-01-25T02:19:10.848Z,73.6
2018-01-25T02:20:10.630Z,73.95
2018-01-25T02:21:10.800Z,73.83
2018-01-25T02:22:10.824Z,73.57
2018-01-25T02:23:10.689Z,73.27
2018-01-25T02:24:11.297Z,73.25
2018-01-25T02:25:10.881Z,73.25
2018-01-25T02:26:10.706Z,73.15
2018-01-25T02:27:10.822Z,73.52
2018-01-25T02:28:10.932Z,73.46
2018-01-25T02:29:10.871Z,73.69
2018-01-25T02:30:11.053Z,73.64
2018-01-25T02:31:10.910Z,73.75
2018-01-25T02:32:10.844Z,73.68
2018-01-25T02:33:10.838Z,73.75
2018-01-25T02:34:10.845Z,74.11
2018-01-25T02:35:10.940Z,73.56
2018-01-25T02:36:10.666Z,73.78
2018-01-25T02:37:10.966Z,74.03
2018-01-25T02:39:23.660Z,73.95
2018-01-25T02:40:10.827Z,73.97
2018-01-25T02:41:10.814Z,73.97
2018-01-25T02:42:10.940Z,73.5
2018-01-25T02:43:10.844Z,73.1
2018-01-25T02:44:10.918Z,73.61
2018-01-25T02:45:10.663Z,73.74
2018-01-25T02:46:10.858Z,74.01
2018-01-25T02:47:10.768Z,74.17
2018-01-25T02:48:10.737Z,74.22
2018-01-25T02:49:10.816Z,73.52
2018-01-25T02:50:10.735Z,73.88
2018-01-25T02:51:10.842Z,73.4
2018-01-25T02:52:10.784Z,73.75
2018-01-25T02:53:10.741Z,73.38
2018-01-25T02:54:10.849Z,73.21
2018-01-25T02:55:10.680Z,73.64
2018-01-25T02:56:11.381Z,74.11
2018-01-25T02:57:10.834Z,73.35
2018-01-25T02:58:10.659Z,73.48
2018-01-25T02:59:10.694Z,72.65
2018-01-25T03:00:10.795Z,73.19
2018-01-25T03:01:10.706Z,72.83
2018-01-25T03:02:10.847Z,73.24
2018-01-25T03:03:11.182Z,73.33
2018-01-25T03:04:10.808Z,73.14
2018-01-25T03:05:10.784Z,72.79
2018-01-25T03:06:11.002Z,72.81
2018-01-25T03:07:10.915Z,73.08
2018-01-25T03:08:10.850Z,73.06
2018-01-25T03:09:10.663Z,73.16
2018-01-25T03:10:10.683Z,73.02
2018-01-25T03:11:10.807Z,73.29
2018-01-25T03:12:10.845Z,73.04
2018-01-25T03:13:10.944Z,72.65
2018-01-25T03:14:10.747Z,72.97
2018-01-25T03:15:10.832Z,73.37
2018-01-25T03:16:10.887Z,73.5
2018-01-25T03:17:10.764Z,73.57
2018-01-25T03:18:10.756Z,73.97
2018-01-25T03:19:10.929Z,74
2018-01-25T03:20:10.756Z,73.96
2018-01-25T03:21:10.898Z,73.62
2018-01-25T03:22:10.782Z,74.06
2018-01-25T03:23:10.878Z,74.17
2018-01-25T03:24:10.879Z,74.09
2018-01-25T03:25:10.768Z,74.5
2018-01-25T03:26:10.898Z,74.58
2018-01-25T03:27:10.838Z,74.49
2018-01-25T03:28:10.777Z,74.62
2018-01-25T03:29:10.898Z,74.41
2018-01-25T03:30:10.921Z,74.13
2018-01-25T03:31:10.795Z,74.3
2018-01-25T03:32:10.884Z,74.26
2018-01-25T03:33:10.992Z,74.2
2018-01-25T03:34:10.916Z,74.05
2018-01-25T03:35:10.983Z,73.86
2018-01-25T03:36:10.993Z,73.82
2018-01-25T03:37:11.777Z,73.51
2018-01-25T03:38:10.755Z,73.61
2018-01-25T03:39:10.726Z,73.11
2018-01-25T03:40:10.974Z,73.35
2018-01-25T03:41:10.952Z,73.42
2018-01-25T03:43:13.336Z,73.5
2018-01-25T03:44:10.796Z,73.25
2018-01-25T03:45:10.996Z,73.61
2018-01-25T03:46:10.831Z,73.07
2018-01-25T03:47:11.005Z,73.42
2018-01-25T03:48:10.725Z,73.41
2018-01-25T03:50:10.835Z,73.58
2018-01-25T03:53:26.773Z,73.81
2018-01-25T03:54:10.917Z,73.32
2018-01-25T03:55:11.041Z,72.62
2018-01-25T03:56:10.808Z,72.77
2018-01-25T03:57:10.894Z,73.32
2018-01-25T03:58:10.887Z,73.24
2018-01-25T03:59:11.023Z,73.16
2018-01-25T04:00:11.089Z,73.25
2018-01-25T04:01:11.542Z,73.45
2018-01-25T04:02:10.827Z,73.46
2018-01-25T04:03:11.024Z,72.73
2018-01-25T04:04:11.002Z,72.68
2018-01-25T04:05:10.922Z,72.06
2018-01-25T04:06:10.905Z,72.37
2018-01-25T04:07:10.987Z,73.04
2018-01-25T04:08:10.886Z,73.02
2018-01-25T04:09:10.849Z,73.04
2018-01-25T04:10:10.876Z,72.66
2018-01-25T04:11:10.884Z,73.01
2018-01-25T04:12:11.023Z,73.19
2018-01-25T04:13:10.795Z,72.74
2018-01-25T04:14:10.820Z,72.85
2018-01-25T04:15:10.967Z,72.83
2018-01-25T04:16:11.114Z,72.94
2018-01-25T04:17:10.909Z,73.08
2018-01-25T04:18:10.951Z,72.88
2018-01-25T04:19:10.828Z,73.06
2018-01-25T04:20:10.874Z,72.95
2018-01-25T04:21:11.005Z,73.23
2018-01-25T04:22:11.139Z,72.18
2018-01-25T04:23:10.818Z,72.5
2018-01-25T04:24:10.861Z,72.19
2018-01-25T04:25:10.919Z,72.3
2018-01-25T04:26:11.756Z,72.21
2018-01-25T04:27:10.882Z,71.89
2018-01-25T04:28:10.996Z,72.05
2018-01-25T04:29:10.921Z,72.06
2018-01-25T04:30:11.941Z,71.89
2018-01-25T04:31:12.132Z,72.02
2018-01-25T04:32:12.203Z,72.11
2018-01-25T04:33:10.970Z,71.95
2018-01-25T04:34:10.924Z,71.13
2018-01-25T04:35:10.947Z,71.91
2018-01-25T04:36:10.833Z,70.97
2018-01-25T04:37:11.061Z,71.46
2018-01-25T04:38:11.022Z,70.71
2018-01-25T04:39:11.022Z,71
2018-01-25T04:40:10.855Z,71.02
2018-01-25T04:41:10.958Z,70.12
2018-01-25T04:42:11.011Z,69.96
2018-01-25T04:43:10.939Z,70.21
2018-01-25T04:44:10.859Z,70.5
2018-01-25T04:45:11.024Z,70.47
2018-01-25T04:46:11.025Z,70.6
2018-01-25T04:47:11.006Z,70.94
2018-01-25T04:48:11.021Z,70.96
2018-01-25T04:49:10.945Z,70.88
2018-01-25T04:50:10.977Z,70.92
2018-01-25T04:51:10.962Z,70.89
2018-01-25T04:52:10.939Z,70.5
2018-01-25T04:53:11.049Z,70.58
2018-01-25T04:54:11.097Z,70.2
2018-01-25T04:55:10.932Z,70.5
2018-01-25T04:56:11.095Z,70.57
2018-01-25T04:57:11.026Z,70.34
2018-01-25T04:58:10.984Z,70.38
2018-01-25T04:59:11.026Z,71.03
2018-01-25T05:00:11.182Z,70.97
2018-01-25T05:01:11.092Z,70.41
2018-01-25T05:02:10.868Z,70.74
2018-01-25T05:03:11.627Z,70.25
2018-01-25T05:04:10.892Z,70.42
2018-01-25T05:05:11.117Z,70.53
2018-01-25T05:06:11.121Z,70.44
2018-01-25T05:07:11.019Z,70.79
2018-01-25T05:08:11.105Z,70.88
2018-01-25T05:09:11.132Z,69.94
2018-01-25T05:10:10.910Z,70.59
2018-01-25T05:11:11.153Z,69.98
2018-01-25T05:12:11.068Z,70.71
2018-01-25T05:13:11.651Z,70.79
2018-01-25T05:14:11.009Z,69.15
2018-01-25T05:15:11.035Z,69.6
2018-01-25T05:16:10.898Z,69.75
2018-01-25T05:17:11.131Z,69.49
2018-01-25T05:18:10.932Z,69.78
2018-01-25T05:19:10.950Z,69.93
2018-01-25T05:20:10.968Z,70.63
2018-01-25T05:21:11.234Z,70.65
2018-01-25T05:22:11.032Z,70.39
2018-01-25T05:23:11.086Z,70.32
2018-01-25T05:24:10.818Z,70.77
2018-01-25T05:25:11.094Z,69.99
2018-01-25T05:26:10.816Z,70.06
2018-01-25T05:27:11.061Z,70.15
2018-01-25T05:28:11.026Z,70.52
2018-01-25T05:29:10.987Z,70.4
2018-01-25T05:30:11.028Z,70.67
2018-01-25T05:31:10.990Z,70.63
2018-01-25T05:32:11.191Z,70.13
2018-01-25T05:33:11.194Z,69.78
2018-01-25T05:34:11.251Z,69.85
2018-01-25T05:35:11.130Z,70.1
2018-01-25T05:36:11.049Z,69.36
2018-01-25T05:37:11.201Z,69.62
2018-01-25T05:38:11.075Z,70.22
2018-01-25T05:39:11.187Z,70.16
2018-01-25T05:40:11.018Z,70.56
2018-01-25T05:41:11.097Z,70.52
2018-01-25T05:42:11.105Z,70.42
2018-01-25T05:43:10.940Z,70.3
2018-01-25T05:44:10.988Z,70.79
2018-01-25T05:45:10.902Z,70.06
2018-01-25T05:46:11.053Z,70.1
2018-01-25T05:47:10.963Z,70.22
2018-01-25T05:48:10.913Z,70.68
2018-01-25T05:49:10.999Z,70.84
2018-01-25T05:50:10.961Z,70.94
2018-01-25T05:51:10.948Z,71.38
2018-01-25T05:52:10.937Z,70.49
2018-01-25T05:53:10.900Z,70.59
2018-01-25T05:54:11.101Z,70.7
2018-01-25T05:55:10.873Z,70.18
2018-01-25T05:56:10.864Z,69.87
2018-01-25T05:57:11.020Z,70.08
2018-01-25T05:58:10.911Z,69.82
2018-01-25T05:59:11.176Z,70.21
2018-01-25T06:00:11.167Z,70.31
2018-01-25T06:01:10.988Z,69.43
2018-01-25T06:02:11.453Z,69.86
2018-01-25T06:03:11.082Z,70.21
2018-01-25T06:04:11.014Z,69.6
2018-01-25T06:05:11.353Z,69.07
2018-01-25T06:06:11.427Z,69.82
2018-01-25T06:07:11.010Z,70.18
2018-01-25T06:08:11.244Z,69.39
2018-01-25T06:09:11.143Z,69.33
2018-01-25T06:10:11.030Z,69.29
2018-01-25T06:11:11.099Z,68.81
2018-01-25T06:12:11.096Z,68.93
2018-01-25T06:13:11.010Z,69.43
2018-01-25T06:14:11.222Z,69.11
2018-01-25T06:15:11.143Z,69.53
2018-01-25T06:16:11.152Z,69.13
2018-01-25T06:17:11.182Z,69.32
2018-01-25T06:18:11.353Z,69.38
2018-01-25T06:19:11.144Z,69.47
2018-01-25T06:20:11.191Z,69.88
2018-01-25T06:21:11.200Z,69.88
2018-01-25T06:22:11.231Z,68.96
2018-01-25T06:23:11.653Z,69.6
2018-01-25T06:24:10.992Z,69.66
2018-01-25T06:25:11.152Z,69.62
2018-01-25T06:26:11.076Z,70
2018-01-25T06:27:11.136Z,70.3
2018-01-25T06:28:11.050Z,70.44
2018-01-25T06:29:11.017Z,70.01
2018-01-25T06:30:11.238Z,69.68
2018-01-25T06:31:11.058Z,69.42
2018-01-25T06:32:11.056Z,69.7
2018-01-25T06:33:11.441Z,70.33
2018-01-25T06:34:11.270Z,70.14
2018-01-25T06:35:11.088Z,70.49
2018-01-25T06:36:11.214Z,70.31
2018-01-25T06:37:10.889Z,70.26
2018-01-25T06:38:11.186Z,70.54
2018-01-25T06:39:11.127Z,69.6
2018-01-25T06:40:11.028Z,70.15
2018-01-25T06:41:11.020Z,69.69
2018-01-25T06:42:11.000Z,70.27
2018-01-25T06:43:11.169Z,69.99
2018-01-25T06:44:11.070Z,70.02
2018-01-25T06:45:11.040Z,70.49
2018-01-25T06:46:11.069Z,70.56
2018-01-25T06:47:10.902Z,70.9
2018-01-25T06:48:10.948Z,70.91
2018-01-25T06:49:11.264Z,70.73
2018-01-25T06:50:10.983Z,70.67
2018-01-25T06:51:10.971Z,70.95
2018-01-25T06:52:11.081Z,70.57
2018-01-25T06:53:11.124Z,70.48
2018-01-25T06:54:10.951Z,70.4
2018-01-25T06:55:10.992Z,70.66
2018-01-25T06:56:10.936Z,70.56
2018-01-25T06:57:11.087Z,70.58
2018-01-25T06:58:10.991Z,70.26
2018-01-25T06:59:11.046Z,70.58
2018-01-25T07:00:11.094Z,70.56
2018-01-25T07:01:11.236Z,70.83
2018-01-25T07:02:11.037Z,71.06
2018-01-25T07:03:11.184Z,71.23
2018-01-25T07:04:11.165Z,71.08
2018-01-25T07:05:11.142Z,71.35
2018-01-25T07:06:11.147Z,70.9
2018-01-25T07:07:11.076Z,71.18
2018-01-25T07:08:11.076Z,71.32
2018-01-25T07:09:10.996Z,71.2
2018-01-25T07:10:11.088Z,71.21
2018-01-25T07:11:11.260Z,71.42
2018-01-25T07:12:11.176Z,71.53
2018-01-25T07:13:11.038Z,71.3
2018-01-25T07:14:11.069Z,71.71
2018-01-25T07:15:11.112Z,71.82
2018-01-25T07:16:11.133Z,71.68
2018-01-25T07:17:11.043Z,71.57
2018-01-25T07:18:11.166Z,70.65
2018-01-25T07:19:11.154Z,71.13
2018-01-25T07:20:11.095Z,71.35
2018-01-25T07:21:10.960Z,71.61
2018-01-25T07:22:11.287Z,71.56
2018-01-25T07:23:11.183Z,71.67
2018-01-25T07:24:10.972Z,71.58
2018-01-25T07:25:11.123Z,72.11
2018-01-25T07:26:11.330Z,71.51
2018-01-25T07:27:11.129Z,71.86
2018-01-25T07:28:11.287Z,72.07
2018-01-25T07:29:11.252Z,72.14
2018-01-25T07:30:11.182Z,72.15
2018-01-25T07:31:11.032Z,72.09
2018-01-25T07:32:11.125Z,72.31
2018-01-25T07:33:11.251Z,72.09
2018-01-25T07:34:11.162Z,72.18
2018-01-25T07:35:11.675Z,72.33
2018-01-25T07:36:11.172Z,71.67
2018-01-25T07:37:11.151Z,72.12
2018-01-25T07:38:11.185Z,72.38
2018-01-25T07:39:11.176Z,72.45
2018-01-25T07:40:11.426Z,72.79
2018-01-25T07:41:11.270Z,72.77
2018-01-25T07:42:11.285Z,73.03
2018-01-25T07:43:11.302Z,72.86
2018-01-25T07:44:11.194Z,73.05
2018-01-25T07:45:11.473Z,73.13
2018-01-25T07:46:11.253Z,73.17
2018-01-25T07:47:11.156Z,73.1
2018-01-25T07:48:11.161Z,73.52
2018-01-25T07:49:11.162Z,73.32
2018-01-25T07:50:11.171Z,73.29
2018-01-25T07:51:11.307Z,73.52
2018-01-25T07:52:11.139Z,73.83
2018-01-25T07:53:11.142Z,73.79
2018-01-25T07:54:11.264Z,73.64
2018-01-25T07:55:11.261Z,74.17
2018-01-25T07:56:11.323Z,74.04
2018-01-25T07:57:11.103Z,73.83
2018-01-25T07:58:11.096Z,73.8
2018-01-25T07:59:11.734Z,74.04
2018-01-25T08:00:11.160Z,73.75
2018-01-25T08:01:11.395Z,73.98
2018-01-25T08:02:11.025Z,73.88
2018-01-25T08:03:11.558Z,74.42
2018-01-25T08:04:11.694Z,74.13
2018-01-25T08:05:11.381Z,73.76
2018-01-25T08:06:12.220Z,74.21
2018-01-25T08:07:11.392Z,74.54
2018-01-25T08:08:11.520Z,74.27
2018-01-25T08:09:11.508Z,74.59
2018-01-25T08:10:11.400Z,74.45
2018-01-25T08:11:11.469Z,74.64
2018-01-25T08:12:11.439Z,74.74
2018-01-25T08:13:11.730Z,75.47
2018-01-25T08:14:11.351Z,76.41
2018-01-25T08:15:11.387Z,76.34
2018-01-25T08:16:11.352Z,75.63
2018-01-25T08:17:11.408Z,75.78
2018-01-25T08:18:11.505Z,75.55
2018-01-25T08:19:11.388Z,75.27
2018-01-25T08:20:11.425Z,75.21
2018-01-25T08:21:11.574Z,75.22
2018-01-25T08:22:11.561Z,75.45
2018-01-25T08:23:11.620Z,75.73
2018-01-25T08:24:11.493Z,75.41
2018-01-25T08:25:11.595Z,75.47
2018-01-25T08:26:11.448Z,75.77
2018-01-25T08:27:11.424Z,75.65
2018-01-25T08:28:11.576Z,75.72
2018-01-25T08:29:11.544Z,76.03
2018-01-25T08:30:11.620Z,75.96
2018-01-25T08:31:11.344Z,75.78
2018-01-25T08:32:11.429Z,75.58
2018-01-25T08:33:11.444Z,75.54
2018-01-25T08:34:11.416Z,75.86
2018-01-25T08:35:11.373Z,76.24
2018-01-25T08:36:11.661Z,76.01
2018-01-25T08:37:11.448Z,75.42
2018-01-25T08:38:11.502Z,75.4
2018-01-25T08:39:12.069Z,75.53
2018-01-25T08:40:11.503Z,75.06
2018-01-25T08:41:11.543Z,75.16
2018-01-25T08:42:11.554Z,74.95
2018-01-25T08:43:11.661Z,74.85
2018-01-25T08:44:11.652Z,74.73
2018-01-25T08:45:14.025Z,74.43
2018-01-25T08:46:11.585Z,74.23
2018-01-25T08:47:11.592Z,74.19
2018-01-25T08:48:11.588Z,73.86
2018-01-25T08:49:11.543Z,73.73
2018-01-25T08:50:11.508Z,73.4
2018-01-25T08:51:11.434Z,72.86
2018-01-25T08:52:11.518Z,73.18
2018-01-25T08:53:11.557Z,73.33
2018-01-25T08:54:11.588Z,73.37
2018-01-25T08:55:11.443Z,73.39
2018-01-25T08:56:11.488Z,73.56
2018-01-25T08:57:11.325Z,73.86
2018-01-25T08:58:12.011Z,73.85
2018-01-25T08:59:11.522Z,73.37
2018-01-25T09:00:11.535Z,73.32
2018-01-25T09:01:11.489Z,72.56
2018-01-25T09:02:11.360Z,73.09
2018-01-25T09:03:11.617Z,73.21
2018-01-25T09:04:11.640Z,72.9
2018-01-25T09:05:11.708Z,72.5
2018-01-25T09:06:11.600Z,73.02
2018-01-25T09:07:11.421Z,72.84
2018-01-25T09:08:11.620Z,72.72
2018-01-25T09:09:11.592Z,73.12
2018-01-25T09:10:11.859Z,72.15
2018-01-25T09:11:11.399Z,72.59
2018-01-25T09:12:11.437Z,72.19
2018-01-25T09:13:11.745Z,72.66
2018-01-25T09:14:11.595Z,72.16
2018-01-25T09:15:11.677Z,72.67
2018-01-25T09:16:11.533Z,72.64
2018-01-25T09:17:11.619Z,72.56
2018-01-25T09:18:11.501Z,72.73
2018-01-25T09:19:11.593Z,72.48
2018-01-25T09:20:11.523Z,72.45
2018-01-25T09:21:11.734Z,73.04
2018-01-25T09:22:11.790Z,72.86
2018-01-25T09:23:11.614Z,72.66
2018-01-25T09:24:11.575Z,71.61
2018-01-25T09:25:11.643Z,71.78
2018-01-25T09:26:11.616Z,71.72
2018-01-25T09:27:11.758Z,71.97
2018-01-25T09:28:11.683Z,71.95
2018-01-25T09:29:11.569Z,72.17
2018-01-25T09:30:11.543Z,72.45
2018-01-25T09:31:11.521Z,71.71
2018-01-25T09:32:11.692Z,71.49
2018-01-25T09:33:11.605Z,71.24
2018-01-25T09:34:10.797Z,71.43
2018-01-25T09:35:10.554Z,71.18
2018-01-25T09:36:10.611Z,71.05
2018-01-25T09:37:10.430Z,71.17
2018-01-25T09:38:10.752Z,71.44
2018-01-25T09:39:10.692Z,70.93
2018-01-25T09:40:10.700Z,70.49
2018-01-25T09:41:10.640Z,70.81
2018-01-25T09:42:10.593Z,70.97
2018-01-25T09:43:10.471Z,71.49
2018-01-25T09:44:10.699Z,71.55
2018-01-25T09:45:10.681Z,70.96
2018-01-25T09:46:10.651Z,71.22
2018-01-25T09:47:10.735Z,71.4
2018-01-25T09:48:10.654Z,71.07
2018-01-25T09:49:10.597Z,70.78
2018-01-25T09:50:10.610Z,71.24
2018-01-25T09:51:10.660Z,71.37
2018-01-25T09:52:10.740Z,71.29
2018-01-25T09:53:10.660Z,70.91
2018-01-25T09:54:10.584Z,71.34
2018-01-25T09:55:10.737Z,71.25
2018-01-25T09:56:10.858Z,71.32
2018-01-25T09:57:10.716Z,70.86
2018-01-25T09:58:10.637Z,71.12
2018-01-25T09:59:10.771Z,71.31
2018-01-25T10:00:10.796Z,71.29
2018-01-25T10:01:10.689Z,71.46
2018-01-25T10:02:10.512Z,70.57
2018-01-25T10:03:10.811Z,70.94
2018-01-25T10:04:10.684Z,71
2018-01-25T10:05:10.770Z,70.82
2018-01-25T10:06:10.614Z,71.22
2018-01-25T10:07:10.835Z,71.32
2018-01-25T10:08:10.685Z,71.39
2018-01-25T10:09:10.639Z,71.61
2018-01-25T10:10:10.649Z,70.89
2018-01-25T10:11:10.644Z,70.98
2018-01-25T10:12:10.835Z,71.33
2018-01-25T10:13:10.748Z,70.8
2018-01-25T10:14:10.654Z,70.7
2018-01-25T10:15:10.620Z,71.33
2018-01-25T10:16:10.600Z,71.51
2018-01-25T10:17:10.708Z,71.76
2018-01-25T10:18:10.699Z,72.08
2018-01-25T10:19:10.672Z,72.47
2018-01-25T10:20:10.759Z,72.32
2018-01-25T10:21:10.686Z,72.22
2018-01-25T10:22:10.743Z,72.26
2018-01-25T10:23:10.702Z,72.56
2018-01-25T10:24:10.992Z,72.74
2018-01-25T10:25:10.888Z,73.24
2018-01-25T10:26:10.745Z,73.13
2018-01-25T10:27:10.704Z,73.37
2018-01-25T10:28:10.747Z,73.62
2018-01-25T10:29:10.860Z,73.82
2018-01-25T10:30:10.723Z,73.98
2018-01-25T10:31:10.784Z,74.29
2018-01-25T10:32:10.687Z,74.47
2018-01-25T10:33:10.723Z,74.6
2018-01-25T10:34:10.812Z,74.82
2018-01-25T10:35:10.928Z,74.75
2018-01-25T10:36:10.721Z,75.01
2018-01-25T10:37:10.812Z,74.9
2018-01-25T10:38:10.739Z,75.18
2018-01-25T10:39:10.638Z,74.64
2018-01-25T10:40:10.738Z,74.86
2018-01-25T10:41:11.599Z,75.01
2018-01-25T10:42:10.895Z,74.88
2018-01-25T10:43:11.000Z,75.01
2018-01-25T10:44:10.829Z,74.92
2018-01-25T10:45:11.402Z,74.65
2018-01-25T10:46:11.006Z,74.73
2018-01-25T10:47:10.978Z,74.87
2018-01-25T10:48:10.773Z,75.08
2018-01-25T10:49:11.318Z,74.85
2018-01-25T10:50:10.962Z,75.12
2018-01-25T10:51:10.887Z,75.62
2018-01-25T10:52:10.727Z,75.89
2018-01-25T10:53:10.694Z,75.16
2018-01-25T10:54:12.008Z,75.45
2018-01-25T10:55:12.243Z,74.83
2018-01-25T10:56:11.418Z,75.14
2018-01-25T10:57:11.530Z,75.29
2018-01-25T10:58:12.162Z,75.33
2018-01-25T10:59:12.350Z,75.21
2018-01-25T11:00:14.536Z,75.31
2018-01-25T11:01:13.009Z,74.76
2018-01-25T11:02:10.863Z,75.03
2018-01-25T11:03:12.216Z,75.05
2018-01-25T11:04:11.888Z,74.88
2018-01-25T11:05:11.709Z,74.91
2018-01-25T11:06:12.173Z,75.14
2018-01-25T11:07:11.642Z,75.18
2018-01-25T11:08:12.846Z,74.99
2018-01-25T11:09:14.087Z,75.11
2018-01-25T11:10:12.433Z,75.39
2018-01-25T11:11:11.557Z,75.35
2018-01-25T11:12:11.792Z,75.29
2018-01-25T11:13:11.609Z,75.27
2018-01-25T11:14:11.882Z,75.27
2018-01-25T11:15:11.521Z,75.43
2018-01-25T11:16:12.653Z,75.31
2018-01-25T11:17:13.810Z,75.13
2018-01-25T11:18:14.739Z,75.21
2018-01-25T11:19:12.558Z,75.17
2018-01-25T11:20:14.570Z,75.15
2018-01-25T11:21:16.825Z,74.9
2018-01-25T11:22:12.047Z,75.07
2018-01-25T11:23:12.117Z,74.79
2018-01-25T11:24:11.021Z,74.88
2018-01-25T11:25:11.150Z,75.04
2018-01-25T11:26:12.072Z,74.47
2018-01-25T11:27:15.652Z,74.59
2018-01-25T11:28:14.503Z,74.25
2018-01-25T11:29:13.812Z,74.23
2018-01-25T11:30:11.770Z,74.22
2018-01-25T11:31:13.053Z,73.62
2018-01-25T11:32:14.571Z,73.51
2018-01-25T11:33:12.668Z,73.58
2018-01-25T11:34:11.896Z,74.02
2018-01-25T11:35:11.858Z,73.78
2018-01-25T11:36:11.911Z,73.68
2018-01-25T11:37:11.009Z,73.69
2018-01-25T11:38:11.824Z,73.51
2018-01-25T11:39:11.750Z,72.96
2018-01-25T11:40:11.124Z,73.04
2018-01-25T11:41:11.182Z,73.14
2018-01-25T11:42:11.148Z,72.71
2018-01-25T11:43:11.063Z,72.73
2018-01-25T11:44:10.989Z,72.23
2018-01-25T11:45:11.131Z,72.42
2018-01-25T11:46:11.117Z,71.89
2018-01-25T11:47:10.949Z,72.45
2018-01-25T11:48:11.231Z,71.48
2018-01-25T11:49:11.121Z,71.05
2018-01-25T11:50:10.927Z,71.06
2018-01-25T11:51:11.157Z,70.9
2018-01-25T11:52:11.036Z,70.6
2018-01-25T11:53:11.055Z,70.72
2018-01-25T11:54:11.008Z,70.7
2018-01-25T11:55:11.095Z,70.65
2018-01-25T11:56:11.190Z,70.68
2018-01-25T11:57:11.089Z,70.67
2018-01-25T11:58:11.244Z,71.02
2018-01-25T11:59:11.034Z,71.03
2018-01-25T12:00:11.027Z,71.29
2018-01-25T12:01:10.967Z,70.89
2018-01-25T12:02:11.177Z,71.15
2018-01-25T12:03:11.206Z,70.91
2018-01-25T12:04:11.386Z,70.21
2018-01-25T12:05:11.267Z,70.49
2018-01-25T12:06:11.336Z,70.74
2018-01-25T12:07:11.475Z,70.77
2018-01-25T12:08:11.476Z,70.85
2018-01-25T12:09:11.457Z,71.44
2018-01-25T12:10:11.261Z,71.29
2018-01-25T12:11:11.326Z,71.29
2018-01-25T12:12:11.285Z,70.59
2018-01-25T12:13:11.304Z,70.82
2018-01-25T12:14:11.503Z,71.06
2018-01-25T12:15:11.352Z,71.6
2018-01-25T12:16:11.616Z,70.73
2018-01-25T12:17:11.456Z,70.86
2018-01-25T12:18:11.380Z,70.68
2018-01-25T12:19:11.424Z,70.33
2018-01-25T12:20:11.536Z,71.07
2018-01-25T12:21:11.504Z,69.41
2018-01-25T12:22:11.302Z,69.87
2018-01-25T12:23:11.310Z,69.69
2018-01-25T12:24:11.420Z,69.89
2018-01-25T12:25:11.416Z,69.25
2018-01-25T12:26:11.513Z,69.55
2018-01-25T12:27:11.430Z,69.61
2018-01-25T12:28:11.385Z,68.99
2018-01-25T12:29:11.340Z,69.8
2018-01-25T12:30:11.244Z,70.53
2018-01-25T12:31:11.453Z,69.82
2018-01-25T12:32:11.372Z,69.81
2018-01-25T12:33:11.454Z,69.29
2018-01-25T12:34:12.405Z,69.9
2018-01-25T12:35:10.767Z,69.98
2018-01-25T12:36:10.784Z,69.57
2018-01-25T12:37:10.617Z,68.95
2018-01-25T12:38:10.554Z,69.83
2018-01-25T12:39:10.593Z,69.38
2018-01-25T12:40:10.711Z,68.91
2018-01-25T12:41:10.747Z,69.83
2018-01-25T12:42:10.472Z,70.21
2018-01-25T12:43:10.619Z,69.29
2018-01-25T12:44:10.738Z,68.93
2018-01-25T12:45:10.775Z,69
2018-01-25T12:46:10.614Z,69.39
2018-01-25T12:47:10.570Z,69.41
2018-01-25T12:48:10.719Z,70.18
2018-01-25T12:49:10.699Z,70.12
2018-01-25T12:50:10.498Z,70.07
2018-01-25T12:51:10.670Z,70.43
2018-01-25T12:52:10.623Z,69.85
2018-01-25T12:53:10.558Z,70.64
2018-01-25T12:54:10.792Z,70.52
2018-01-25T12:55:10.699Z,70.29
2018-01-25T12:56:10.840Z,70.3
2018-01-25T12:57:10.641Z,70.13
2018-01-25T12:58:10.607Z,70.16
2018-01-25T12:59:10.655Z,70.21
2018-01-25T13:00:10.760Z,69.64
2018-01-25T13:01:10.547Z,68.96
2018-01-25T13:02:10.726Z,68.44
2018-01-25T13:03:10.500Z,68.91
2018-01-25T13:04:10.598Z,68.53